US-0145 weather

Viejo Ranch Ultralightport
Helotes, Texas, United States

Public forecast

Using degrees Fahrenheit for public forecast. Weather courtesy of forecast.io.

METAR (pilot weather report)

Closest report is Boerne Stage Field, 7.2 nm (13.4 km) NNE. Retrieved 2019/07/23 06:35 UTC (17 minutes ago):

K5C1 230635Z AUTO 00000KT 10SM SCT090 23/19 A3010 RMK AO1

TAF (pilot weather forecast)

Closest forecast is San Antonio International Airport, 13.8 nm (25.6 km) ESE. Retrieved 2019/07/23 06:34 UTC (18 minutes ago):

TAF KSAT 230532Z 2306/2412 18006KT P6SM SCT060 FM230900 36006KT P6SM VCSH BKN035 FM231500 02012KT P6SM VCSH BKN060 FM231800 03012KT P6SM SCT060 FM240200 04005KT P6SM SKC